sensor_id;sensor_type;location;lat;lon;timestamp;P1;durP1;ratioP1;P2;durP2;ratioP2
2390;SDS011;22957;50.824;4.360;2023-01-28T08:39:57;14.70;;;8.60;;
2390;SDS011;22957;50.824;4.360;2023-01-28T08:42:23;10.37;;;5.60;;
2390;SDS011;22957;50.824;4.360;2023-01-28T08:44:48;16.40;;;8.00;;
2390;SDS011;22957;50.824;4.360;2023-01-28T08:47:14;15.00;;;9.70;;
2390;SDS011;22957;50.824;4.360;2023-01-28T08:49:40;12.77;;;8.23;;
2390;SDS011;22957;50.824;4.360;2023-01-28T08:52:06;15.43;;;8.10;;
2390;SDS011;22957;50.824;4.360;2023-01-28T08:55:23;14.43;;;9.20;;
2390;SDS011;22957;50.824;4.360;2023-01-28T08:57:50;15.30;;;9.77;;
2390;SDS011;22957;50.824;4.360;2023-01-28T09:00:16;15.43;;;10.47;;
2390;SDS011;22957;50.824;4.360;2023-01-28T09:02:42;16.10;;;9.10;;
2390;SDS011;22957;50.824;4.360;2023-01-28T09:05:08;18.83;;;12.57;;
2390;SDS011;22957;50.824;4.360;2023-01-28T09:07:35;16.53;;;11.10;;
2390;SDS011;22957;50.824;4.360;2023-01-28T09:10:02;15.50;;;9.43;;
2390;SDS011;22957;50.824;4.360;2023-01-28T09:12:29;17.33;;;8.90;;
2390;SDS011;22957;50.824;4.360;2023-01-28T09:14:55;19.20;;;13.50;;
2390;SDS011;22957;50.824;4.360;2023-01-28T09:17:21;13.93;;;9.33;;
2390;SDS011;22957;50.824;4.360;2023-01-28T09:19:47;16.50;;;11.80;;
2390;SDS011;22957;50.824;4.360;2023-01-28T09:22:13;17.30;;;9.60;;
2390;SDS011;22957;50.824;4.360;2023-01-28T09:24:39;17.47;;;11.03;;
2390;SDS011;22957;50.824;4.360;2023-01-28T09:27:04;16.87;;;10.57;;
2390;SDS011;22957;50.824;4.360;2023-01-28T09:29:34;14.30;;;10.40;;
2390;SDS011;22957;50.824;4.360;2023-01-28T09:31:59;13.60;;;8.77;;
2390;SDS011;22957;50.824;4.360;2023-01-28T09:34:25;17.80;;;10.50;;
2390;SDS011;22957;50.824;4.360;2023-01-28T09:36:51;18.03;;;11.17;;
2390;SDS011;22957;50.824;4.360;2023-01-28T09:39:17;13.90;;;8.93;;
2390;SDS011;22957;50.824;4.360;2023-01-28T09:41:52;17.20;;;10.93;;
2390;SDS011;22957;50.824;4.360;2023-01-28T09:50:06;15.40;;;10.63;;
2390;SDS011;22957;50.824;4.360;2023-01-28T09:52:39;20.37;;;11.33;;
2390;SDS011;22957;50.824;4.360;2023-01-28T09:55:21;17.43;;;11.23;;
2390;SDS011;22957;50.824;4.360;2023-01-28T09:57:55;19.10;;;12.50;;
2390;SDS011;22957;50.824;4.360;2023-01-28T10:00:23;17.33;;;10.43;;
2390;SDS011;22957;50.824;4.360;2023-01-28T10:03:05;14.83;;;10.23;;
2390;SDS011;22957;50.824;4.360;2023-01-28T10:06:02;17.87;;;12.07;;
2390;SDS011;22957;50.824;4.360;2023-01-28T10:11:25;15.80;;;10.73;;
2390;SDS011;22957;50.824;4.360;2023-01-28T10:19:09;17.53;;;11.13;;
2390;SDS011;22957;50.824;4.360;2023-01-28T10:21:41;15.50;;;11.17;;
2390;SDS011;22957;50.824;4.360;2023-01-28T10:24:35;18.27;;;11.80;;
2390;SDS011;22957;50.824;4.360;2023-01-28T10:27:14;19.80;;;13.53;;
2390;SDS011;22957;50.824;4.360;2023-01-28T10:29:43;18.23;;;10.93;;
2390;SDS011;22957;50.824;4.360;2023-01-28T10:32:15;17.73;;;11.10;;
2390;SDS011;22957;50.824;4.360;2023-01-28T10:34:47;20.27;;;11.43;;
2390;SDS011;22957;50.824;4.360;2023-01-28T10:37:14;21.20;;;14.37;;
2390;SDS011;22957;50.824;4.360;2023-01-28T10:39:41;20.20;;;12.80;;
2390;SDS011;22957;50.824;4.360;2023-01-28T10:42:15;17.87;;;11.73;;
2390;SDS011;22957;50.824;4.360;2023-01-28T10:44:52;20.80;;;13.20;;
2390;SDS011;22957;50.824;4.360;2023-01-28T10:47:30;17.67;;;11.80;;
2390;SDS011;22957;50.824;4.360;2023-01-28T10:50:02;19.87;;;12.53;;
2390;SDS011;22957;50.824;4.360;2023-01-28T10:52:29;16.70;;;10.87;;
2390;SDS011;22957;50.824;4.360;2023-01-28T10:54:59;21.70;;;17.20;;
2390;SDS011;22957;50.824;4.360;2023-01-28T10:57:29;20.67;;;13.97;;
2390;SDS011;22957;50.824;4.360;2023-01-28T11:00:08;24.30;;;11.93;;
2390;SDS011;22957;50.824;4.360;2023-01-28T11:02:35;18.13;;;11.30;;
2390;SDS011;22957;50.824;4.360;2023-01-28T11:05:03;21.40;;;10.00;;
2390;SDS011;22957;50.824;4.360;2023-01-28T11:07:41;21.47;;;11.90;;
2390;SDS011;22957;50.824;4.360;2023-01-28T11:10:25;16.77;;;8.03;;
2390;SDS011;22957;50.824;4.360;2023-01-28T11:12:57;14.77;;;9.30;;
2390;SDS011;22957;50.824;4.360;2023-01-28T11:15:24;14.97;;;9.97;;
2390;SDS011;22957;50.824;4.360;2023-01-28T11:17:57;20.27;;;11.60;;
2390;SDS011;22957;50.824;4.360;2023-01-28T11:20:25;17.30;;;9.50;;
2390;SDS011;22957;50.824;4.360;2023-01-28T11:22:52;17.47;;;11.77;;
2390;SDS011;22957;50.824;4.360;2023-01-28T11:27:55;14.70;;;8.70;;
2390;SDS011;22957;50.824;4.360;2023-01-28T11:30:29;14.97;;;9.83;;
2390;SDS011;22957;50.824;4.360;2023-01-28T11:33:13;16.03;;;11.17;;
2390;SDS011;22957;50.824;4.360;2023-01-28T11:35:51;17.63;;;12.90;;
2390;SDS011;22957;50.824;4.360;2023-01-28T11:38:22;15.10;;;9.53;;
2390;SDS011;22957;50.824;4.360;2023-01-28T11:40:50;16.90;;;10.10;;
2390;SDS011;22957;50.824;4.360;2023-01-28T11:43:18;16.70;;;11.87;;
2390;SDS011;22957;50.824;4.360;2023-01-28T11:45:56;18.20;;;11.30;;
2390;SDS011;22957;50.824;4.360;2023-01-28T11:59:37;16.80;;;12.23;;
2390;SDS011;22957;50.824;4.360;2023-01-28T12:08:23;15.30;;;10.80;;
2390;SDS011;22957;50.824;4.360;2023-01-28T12:13:47;17.57;;;10.80;;
2390;SDS011;22957;50.824;4.360;2023-01-28T12:16:28;17.73;;;10.37;;
2390;SDS011;22957;50.824;4.360;2023-01-28T13:51:25;17.87;;;12.20;;
2390;SDS011;22957;50.824;4.360;2023-01-28T13:54:01;16.50;;;11.30;;
2390;SDS011;22957;50.824;4.360;2023-01-28T13:59:28;16.67;;;11.10;;
2390;SDS011;22957;50.824;4.360;2023-01-28T14:10:40;19.33;;;12.93;;
2390;SDS011;22957;50.824;4.360;2023-01-28T14:16:21;20.53;;;13.93;;
2390;SDS011;22957;50.824;4.360;2023-01-28T14:19:16;21.67;;;13.60;;
2390;SDS011;22957;50.824;4.360;2023-01-28T14:21:46;19.50;;;13.27;;
2390;SDS011;22957;50.824;4.360;2023-01-28T14:24:16;20.53;;;13.63;;
2390;SDS011;22957;50.824;4.360;2023-01-28T14:26:49;17.90;;;11.13;;
2390;SDS011;22957;50.824;4.360;2023-01-28T14:29:35;19.27;;;11.83;;
2390;SDS011;22957;50.824;4.360;2023-01-28T14:32:21;17.47;;;10.07;;
2390;SDS011;22957;50.824;4.360;2023-01-28T14:34:52;19.87;;;12.53;;
2390;SDS011;22957;50.824;4.360;2023-01-28T14:37:21;21.30;;;12.47;;
2390;SDS011;22957;50.824;4.360;2023-01-28T14:42:25;21.13;;;11.80;;
2390;SDS011;22957;50.824;4.360;2023-01-28T14:58:38;20.10;;;12.57;;
2390;SDS011;22957;50.824;4.360;2023-01-28T15:01:20;21.20;;;13.07;;
2390;SDS011;22957;50.824;4.360;2023-01-28T15:03:48;20.03;;;12.40;;
2390;SDS011;22957;50.824;4.360;2023-01-28T15:06:15;19.40;;;11.13;;
2390;SDS011;22957;50.824;4.360;2023-01-28T15:08:45;18.03;;;11.57;;
2390;SDS011;22957;50.824;4.360;2023-01-28T15:11:15;19.73;;;12.30;;
2390;SDS011;22957;50.824;4.360;2023-01-28T15:13:46;18.77;;;11.07;;
2390;SDS011;22957;50.824;4.360;2023-01-28T15:16:22;16.93;;;10.07;;
2390;SDS011;22957;50.824;4.360;2023-01-28T15:18:52;22.00;;;13.00;;
2390;SDS011;22957;50.824;4.360;2023-01-28T15:21:19;14.30;;;9.10;;
2390;SDS011;22957;50.824;4.360;2023-01-28T15:23:47;18.83;;;11.53;;
2390;SDS011;22957;50.824;4.360;2023-01-28T15:26:20;17.10;;;10.63;;
2390;SDS011;22957;50.824;4.360;2023-01-28T15:28:51;14.53;;;9.57;;
2390;SDS011;22957;50.824;4.360;2023-01-28T15:31:19;19.17;;;12.10;;
2390;SDS011;22957;50.824;4.360;2023-01-28T15:33:54;22.50;;;12.10;;
2390;SDS011;22957;50.824;4.360;2023-01-28T15:36:40;16.53;;;10.70;;
2390;SDS011;22957;50.824;4.360;2023-01-28T15:39:13;14.10;;;9.50;;
2390;SDS011;22957;50.824;4.360;2023-01-28T15:41:41;17.53;;;10.90;;
2390;SDS011;22957;50.824;4.360;2023-01-28T15:44:30;19.20;;;10.80;;
2390;SDS011;22957;50.824;4.360;2023-01-28T15:46:57;18.30;;;10.70;;
2390;SDS011;22957;50.824;4.360;2023-01-28T15:49:34;26.13;;;14.60;;
2390;SDS011;22957;50.824;4.360;2023-01-28T15:52:02;17.40;;;10.30;;
2390;SDS011;22957;50.824;4.360;2023-01-28T15:54:28;19.37;;;13.03;;
2390;SDS011;22957;50.824;4.360;2023-01-28T15:56:55;22.67;;;13.20;;
2390;SDS011;22957;50.824;4.360;2023-01-28T16:01:51;23.03;;;13.83;;
2390;SDS011;22957;50.824;4.360;2023-01-28T16:04:39;24.77;;;13.90;;
2390;SDS011;22957;50.824;4.360;2023-01-28T16:07:05;15.60;;;10.20;;
2390;SDS011;22957;50.824;4.360;2023-01-28T16:09:31;20.57;;;10.50;;
2390;SDS011;22957;50.824;4.360;2023-01-28T16:17:00;21.63;;;12.60;;
2390;SDS011;22957;50.824;4.360;2023-01-28T16:22:01;20.10;;;11.77;;
2390;SDS011;22957;50.824;4.360;2023-01-28T16:24:28;21.37;;;12.93;;
2390;SDS011;22957;50.824;4.360;2023-01-28T16:29:22;19.77;;;11.80;;
2390;SDS011;22957;50.824;4.360;2023-01-28T16:31:49;23.90;;;11.80;;
2390;SDS011;22957;50.824;4.360;2023-01-28T16:34:14;23.00;;;13.80;;
2390;SDS011;22957;50.824;4.360;2023-01-28T16:36:40;25.33;;;12.60;;
2390;SDS011;22957;50.824;4.360;2023-01-28T16:39:06;29.43;;;13.57;;
2390;SDS011;22957;50.824;4.360;2023-01-28T16:41:33;20.40;;;11.93;;
2390;SDS011;22957;50.824;4.360;2023-01-28T16:44:04;26.83;;;15.77;;
2390;SDS011;22957;50.824;4.360;2023-01-28T16:46:30;21.77;;;12.37;;
2390;SDS011;22957;50.824;4.360;2023-01-28T16:48:59;18.10;;;11.13;;
2390;SDS011;22957;50.824;4.360;2023-01-28T16:51:26;17.83;;;10.67;;
2390;SDS011;22957;50.824;4.360;2023-01-28T16:53:52;24.73;;;13.77;;
2390;SDS011;22957;50.824;4.360;2023-01-28T16:56:19;21.37;;;12.47;;
2390;SDS011;22957;50.824;4.360;2023-01-28T16:58:47;19.27;;;11.63;;
2390;SDS011;22957;50.824;4.360;2023-01-28T17:01:12;22.63;;;13.07;;
2390;SDS011;22957;50.824;4.360;2023-01-28T17:03:38;26.73;;;14.27;;
2390;SDS011;22957;50.824;4.360;2023-01-28T17:06:05;20.63;;;11.60;;
2390;SDS011;22957;50.824;4.360;2023-01-28T17:08:32;20.67;;;11.87;;
2390;SDS011;22957;50.824;4.360;2023-01-28T17:10:58;18.77;;;12.13;;
2390;SDS011;22957;50.824;4.360;2023-01-28T17:13:24;19.93;;;12.00;;
2390;SDS011;22957;50.824;4.360;2023-01-28T17:15:50;17.33;;;10.63;;
2390;SDS011;22957;50.824;4.360;2023-01-28T17:18:17;17.63;;;10.43;;
2390;SDS011;22957;50.824;4.360;2023-01-28T17:20:43;14.80;;;10.60;;
2390;SDS011;22957;50.824;4.360;2023-01-28T17:23:13;22.30;;;12.73;;
2390;SDS011;22957;50.824;4.360;2023-01-28T17:25:40;20.30;;;10.73;;
2390;SDS011;22957;50.824;4.360;2023-01-28T17:28:06;20.10;;;10.23;;
2390;SDS011;22957;50.824;4.360;2023-01-28T17:30:33;15.47;;;8.63;;
2390;SDS011;22957;50.824;4.360;2023-01-28T17:32:59;14.83;;;8.50;;
2390;SDS011;22957;50.824;4.360;2023-01-28T17:35:28;22.63;;;9.87;;
2390;SDS011;22957;50.824;4.360;2023-01-28T17:37:55;16.40;;;9.30;;
2390;SDS011;22957;50.824;4.360;2023-01-28T17:40:21;20.23;;;8.70;;
2390;SDS011;22957;50.824;4.360;2023-01-28T17:42:47;14.93;;;9.17;;
2390;SDS011;22957;50.824;4.360;2023-01-28T17:45:13;18.03;;;10.30;;
2390;SDS011;22957;50.824;4.360;2023-01-28T17:47:39;15.93;;;10.10;;
2390;SDS011;22957;50.824;4.360;2023-01-28T17:50:05;18.50;;;11.73;;
2390;SDS011;22957;50.824;4.360;2023-01-28T17:52:31;16.90;;;9.30;;
2390;SDS011;22957;50.824;4.360;2023-01-28T17:54:57;18.60;;;10.70;;
2390;SDS011;22957;50.824;4.360;2023-01-28T17:57:23;19.53;;;11.40;;
2390;SDS011;22957;50.824;4.360;2023-01-28T17:59:48;15.50;;;9.40;;
2390;SDS011;22957;50.824;4.360;2023-01-28T18:02:14;23.83;;;13.10;;
2390;SDS011;22957;50.824;4.360;2023-01-28T18:04:41;14.80;;;9.03;;
2390;SDS011;22957;50.824;4.360;2023-01-28T18:07:07;16.60;;;9.53;;
2390;SDS011;22957;50.824;4.360;2023-01-28T18:09:40;17.30;;;11.03;;
2390;SDS011;22957;50.824;4.360;2023-01-28T18:12:07;18.67;;;11.20;;
2390;SDS011;22957;50.824;4.360;2023-01-28T18:14:34;19.00;;;10.57;;
2390;SDS011;22957;50.824;4.360;2023-01-28T18:17:01;20.10;;;10.97;;
2390;SDS011;22957;50.824;4.360;2023-01-28T18:19:27;21.07;;;11.67;;
2390;SDS011;22957;50.824;4.360;2023-01-28T18:21:53;16.43;;;9.77;;
2390;SDS011;22957;50.824;4.360;2023-01-28T18:24:20;17.37;;;10.30;;
2390;SDS011;22957;50.824;4.360;2023-01-28T18:26:48;22.40;;;12.77;;
2390;SDS011;22957;50.824;4.360;2023-01-28T18:29:15;20.73;;;10.33;;
2390;SDS011;22957;50.824;4.360;2023-01-28T18:31:44;25.30;;;14.83;;
2390;SDS011;22957;50.824;4.360;2023-01-28T18:34:13;17.47;;;10.57;;
2390;SDS011;22957;50.824;4.360;2023-01-28T18:36:39;18.07;;;10.50;;
2390;SDS011;22957;50.824;4.360;2023-01-28T18:39:05;21.93;;;13.17;;
2390;SDS011;22957;50.824;4.360;2023-01-28T18:41:31;31.23;;;18.90;;
2390;SDS011;22957;50.824;4.360;2023-01-28T18:43:57;24.60;;;16.40;;
2390;SDS011;22957;50.824;4.360;2023-01-28T18:46:23;32.00;;;16.90;;
2390;SDS011;22957;50.824;4.360;2023-01-28T18:48:49;23.97;;;13.10;;
2390;SDS011;22957;50.824;4.360;2023-01-28T18:51:15;21.70;;;12.80;;
2390;SDS011;22957;50.824;4.360;2023-01-28T18:53:41;24.80;;;13.60;;
2390;SDS011;22957;50.824;4.360;2023-01-28T18:56:06;27.77;;;14.63;;
2390;SDS011;22957;50.824;4.360;2023-01-28T18:58:32;26.07;;;12.90;;
2390;SDS011;22957;50.824;4.360;2023-01-28T19:00:58;25.47;;;14.30;;
2390;SDS011;22957;50.824;4.360;2023-01-28T19:03:24;20.70;;;12.77;;
2390;SDS011;22957;50.824;4.360;2023-01-28T19:05:50;34.97;;;17.10;;
2390;SDS011;22957;50.824;4.360;2023-01-28T19:08:16;24.53;;;12.90;;
2390;SDS011;22957;50.824;4.360;2023-01-28T19:10:42;22.60;;;13.57;;
2390;SDS011;22957;50.824;4.360;2023-01-28T19:13:08;26.33;;;14.73;;
2390;SDS011;22957;50.824;4.360;2023-01-28T19:15:34;24.73;;;14.10;;
2390;SDS011;22957;50.824;4.360;2023-01-28T19:18:00;18.90;;;12.00;;
2390;SDS011;22957;50.824;4.360;2023-01-28T19:20:27;20.43;;;12.57;;
2390;SDS011;22957;50.824;4.360;2023-01-28T19:22:53;24.23;;;15.50;;
2390;SDS011;22957;50.824;4.360;2023-01-28T19:25:19;21.17;;;12.67;;
2390;SDS011;22957;50.824;4.360;2023-01-28T19:27:44;26.73;;;16.20;;
2390;SDS011;22957;50.824;4.360;2023-01-28T19:30:10;24.60;;;14.23;;
2390;SDS011;22957;50.824;4.360;2023-01-28T19:32:36;21.93;;;13.27;;
2390;SDS011;22957;50.824;4.360;2023-01-28T19:35:02;19.47;;;12.47;;
2390;SDS011;22957;50.824;4.360;2023-01-28T19:37:28;22.40;;;12.83;;
2390;SDS011;22957;50.824;4.360;2023-01-28T19:39:54;25.10;;;14.70;;
2390;SDS011;22957;50.824;4.360;2023-01-28T19:42:20;29.03;;;16.13;;
2390;SDS011;22957;50.824;4.360;2023-01-28T19:44:45;18.87;;;11.97;;
2390;SDS011;22957;50.824;4.360;2023-01-28T19:47:11;28.00;;;17.10;;
2390;SDS011;22957;50.824;4.360;2023-01-28T19:49:37;22.23;;;14.40;;
2390;SDS011;22957;50.824;4.360;2023-01-28T19:52:03;19.80;;;11.80;;
2390;SDS011;22957;50.824;4.360;2023-01-28T19:54:32;25.00;;;14.13;;
2390;SDS011;22957;50.824;4.360;2023-01-28T19:56:59;25.03;;;14.07;;
2390;SDS011;22957;50.824;4.360;2023-01-28T19:59:24;25.30;;;16.60;;
2390;SDS011;22957;50.824;4.360;2023-01-28T20:01:50;24.60;;;15.70;;
2390;SDS011;22957;50.824;4.360;2023-01-28T20:04:16;24.40;;;15.13;;
2390;SDS011;22957;50.824;4.360;2023-01-28T20:06:42;21.87;;;13.37;;
2390;SDS011;22957;50.824;4.360;2023-01-28T20:09:12;27.40;;;14.40;;
2390;SDS011;22957;50.824;4.360;2023-01-28T20:11:40;25.87;;;13.80;;
2390;SDS011;22957;50.824;4.360;2023-01-28T20:14:06;20.23;;;11.77;;
2390;SDS011;22957;50.824;4.360;2023-01-28T20:16:32;21.47;;;13.30;;
2390;SDS011;22957;50.824;4.360;2023-01-28T20:19:06;24.87;;;15.60;;
2390;SDS011;22957;50.824;4.360;2023-01-28T20:21:36;27.63;;;14.93;;
2390;SDS011;22957;50.824;4.360;2023-01-28T20:24:02;23.17;;;13.80;;
2390;SDS011;22957;50.824;4.360;2023-01-28T20:26:29;26.67;;;14.50;;
2390;SDS011;22957;50.824;4.360;2023-01-28T20:29:06;28.30;;;15.27;;
2390;SDS011;22957;50.824;4.360;2023-01-28T20:31:37;25.43;;;15.10;;
2390;SDS011;22957;50.824;4.360;2023-01-28T20:34:04;20.70;;;13.60;;
2390;SDS011;22957;50.824;4.360;2023-01-28T20:36:33;28.50;;;16.10;;
2390;SDS011;22957;50.824;4.360;2023-01-28T20:38:59;20.70;;;12.63;;
2390;SDS011;22957;50.824;4.360;2023-01-28T20:41:25;23.90;;;13.00;;
2390;SDS011;22957;50.824;4.360;2023-01-28T21:17:53;36.47;;;18.50;;
2390;SDS011;22957;50.824;4.360;2023-01-28T21:20:19;40.50;;;21.07;;
2390;SDS011;22957;50.824;4.360;2023-01-28T21:22:54;37.23;;;21.43;;
2390;SDS011;22957;50.824;4.360;2023-01-28T21:25:20;34.20;;;17.57;;
2390;SDS011;22957;50.824;4.360;2023-01-28T21:27:46;38.60;;;19.27;;
2390;SDS011;22957;50.824;4.360;2023-01-28T21:30:13;32.03;;;16.77;;
2390;SDS011;22957;50.824;4.360;2023-01-28T21:32:39;36.03;;;19.03;;
2390;SDS011;22957;50.824;4.360;2023-01-28T21:35:04;37.43;;;19.00;;
2390;SDS011;22957;50.824;4.360;2023-01-28T21:37:31;35.70;;;18.93;;
2390;SDS011;22957;50.824;4.360;2023-01-28T21:39:57;30.50;;;17.40;;
2390;SDS011;22957;50.824;4.360;2023-01-28T21:42:23;34.20;;;18.60;;
2390;SDS011;22957;50.824;4.360;2023-01-28T21:44:49;31.67;;;18.33;;
2390;SDS011;22957;50.824;4.360;2023-01-28T21:47:15;30.13;;;17.27;;
2390;SDS011;22957;50.824;4.360;2023-01-28T21:49:40;38.13;;;18.73;;
2390;SDS011;22957;50.824;4.360;2023-01-28T21:52:06;46.70;;;22.90;;
2390;SDS011;22957;50.824;4.360;2023-01-28T21:54:33;51.83;;;24.40;;
2390;SDS011;22957;50.824;4.360;2023-01-28T21:56:59;50.13;;;25.90;;
2390;SDS011;22957;50.824;4.360;2023-01-28T21:59:25;37.03;;;21.20;;
2390;SDS011;22957;50.824;4.360;2023-01-28T22:01:58;33.37;;;18.53;;
2390;SDS011;22957;50.824;4.360;2023-01-28T22:04:26;34.80;;;18.50;;
2390;SDS011;22957;50.824;4.360;2023-01-28T22:06:55;42.00;;;23.40;;
2390;SDS011;22957;50.824;4.360;2023-01-28T22:09:21;33.77;;;20.47;;
2390;SDS011;22957;50.824;4.360;2023-01-28T22:11:47;46.80;;;25.77;;
2390;SDS011;22957;50.824;4.360;2023-01-28T22:14:13;36.50;;;20.97;;
2390;SDS011;22957;50.824;4.360;2023-01-28T22:16:39;34.83;;;17.53;;
2390;SDS011;22957;50.824;4.360;2023-01-28T22:19:05;38.17;;;21.00;;
2390;SDS011;22957;50.824;4.360;2023-01-28T22:21:31;35.80;;;20.90;;
2390;SDS011;22957;50.824;4.360;2023-01-28T22:23:57;45.27;;;22.80;;
2390;SDS011;22957;50.824;4.360;2023-01-28T22:26:23;43.10;;;23.30;;
2390;SDS011;22957;50.824;4.360;2023-01-28T22:28:49;50.73;;;27.47;;
2390;SDS011;22957;50.824;4.360;2023-01-28T22:31:15;46.50;;;24.43;;
2390;SDS011;22957;50.824;4.360;2023-01-28T22:33:41;49.90;;;26.40;;
2390;SDS011;22957;50.824;4.360;2023-01-28T22:36:08;50.60;;;27.90;;
2390;SDS011;22957;50.824;4.360;2023-01-28T22:38:37;48.17;;;23.57;;
2390;SDS011;22957;50.824;4.360;2023-01-28T22:41:06;40.77;;;23.53;;
2390;SDS011;22957;50.824;4.360;2023-01-28T22:43:32;45.80;;;24.17;;
2390;SDS011;22957;50.824;4.360;2023-01-28T22:45:59;54.67;;;29.00;;
2390;SDS011;22957;50.824;4.360;2023-01-28T22:48:26;56.93;;;31.10;;
2390;SDS011;22957;50.824;4.360;2023-01-28T22:50:53;46.27;;;26.10;;
2390;SDS011;22957;50.824;4.360;2023-01-28T22:53:18;51.13;;;27.13;;
2390;SDS011;22957;50.824;4.360;2023-01-28T22:55:47;54.97;;;29.10;;
2390;SDS011;22957;50.824;4.360;2023-01-28T22:58:14;49.63;;;26.43;;
2390;SDS011;22957;50.824;4.360;2023-01-28T23:00:40;58.97;;;32.60;;
2390;SDS011;22957;50.824;4.360;2023-01-28T23:03:06;55.90;;;30.00;;
2390;SDS011;22957;50.824;4.360;2023-01-28T23:05:33;53.73;;;29.00;;
2390;SDS011;22957;50.824;4.360;2023-01-28T23:07:59;52.27;;;29.57;;
2390;SDS011;22957;50.824;4.360;2023-01-28T23:10:43;53.07;;;27.40;;
2390;SDS011;22957;50.824;4.360;2023-01-28T23:13:15;50.13;;;25.33;;
2390;SDS011;22957;50.824;4.360;2023-01-28T23:15:43;42.40;;;23.33;;
2390;SDS011;22957;50.824;4.360;2023-01-28T23:18:31;43.63;;;22.67;;
2390;SDS011;22957;50.824;4.360;2023-01-28T23:24:01;44.70;;;24.13;;
2390;SDS011;22957;50.824;4.360;2023-01-28T23:26:48;49.20;;;24.10;;
2390;SDS011;22957;50.824;4.360;2023-01-28T23:29:16;45.07;;;24.70;;
2390;SDS011;22957;50.824;4.360;2023-01-28T23:31:49;43.67;;;23.20;;
2390;SDS011;22957;50.824;4.360;2023-01-28T23:34:17;48.43;;;25.10;;
2390;SDS011;22957;50.824;4.360;2023-01-28T23:36:44;43.17;;;24.23;;
2390;SDS011;22957;50.824;4.360;2023-01-28T23:39:09;48.70;;;26.13;;
2390;SDS011;22957;50.824;4.360;2023-01-28T23:41:35;46.33;;;25.47;;
2390;SDS011;22957;50.824;4.360;2023-01-28T23:44:02;52.87;;;27.40;;
2390;SDS011;22957;50.824;4.360;2023-01-28T23:46:29;49.03;;;24.43;;
2390;SDS011;22957;50.824;4.360;2023-01-28T23:48:55;47.83;;;26.40;;
2390;SDS011;22957;50.824;4.360;2023-01-28T23:51:21;55.10;;;25.10;;
2390;SDS011;22957;50.824;4.360;2023-01-28T23:53:47;42.47;;;23.57;;
2390;SDS011;22957;50.824;4.360;2023-01-28T23:56:15;39.80;;;22.00;;
2390;SDS011;22957;50.824;4.360;2023-01-28T23:58:41;43.53;;;22.50;;
